Time;durP1;ratioP1;P1;durP2;ratioP2;P2;SDS_P1;SDS_P2;PMS_P1;PMS_P2;Temp;Humidity;BMP_temperature;BMP_pressure;BME280_temperature;BME280_humidity;BME280_pressure;Samples;Min_cycle;Max_cycle;Signal;HPM_P1;HPM_P2
2022/03/20 00:00:13;;;;;;;10.60;6.25;;;5.30;99.90;;;;;;4926690;28;20039;-56
2022/03/20 00:02:40;;;;;;;12.60;5.80;;;5.30;99.90;;;;;;4930082;29;20102;-56
2022/03/20 00:05:06;;;;;;;12.25;6.88;;;5.20;99.90;;;;;;4926662;28;20059;-54
2022/03/20 00:07:33;;;;;;;10.02;6.35;;;5.20;99.90;;;;;;4925123;28;20066;-55
2022/03/20 00:10:04;;;;;;;9.73;6.03;;;5.20;99.90;;;;;;4926979;28;20043;-55
2022/03/20 00:12:30;;;;;;;11.32;6.88;;;5.10;99.90;;;;;;4929779;28;20055;-57
2022/03/20 00:14:56;;;;;;;14.30;6.90;;;5.10;99.90;;;;;;4925912;28;20557;-56
2022/03/20 00:17:22;;;;;;;11.48;6.35;;;5.10;99.90;;;;;;4926821;29;20047;-56
2022/03/20 00:19:48;;;;;;;13.98;7.05;;;5.10;99.90;;;;;;4923443;28;20059;-56
2022/03/20 00:22:15;;;;;;;10.82;5.75;;;5.00;99.90;;;;;;4928768;28;20527;-57
2022/03/20 00:24:43;;;;;;;10.20;6.55;;;5.00;99.90;;;;;;4924946;29;20054;-55
2022/03/20 00:27:13;;;;;;;12.13;6.38;;;5.00;99.90;;;;;;4928919;28;20055;-55
2022/03/20 00:29:40;;;;;;;11.82;6.68;;;5.00;99.90;;;;;;4927949;29;20047;-54
2022/03/20 00:32:08;;;;;;;12.18;6.50;;;5.00;99.90;;;;;;4926445;28;20047;-57
2022/03/20 00:34:35;;;;;;;14.18;6.43;;;4.90;99.90;;;;;;4924699;28;22651;-57
2022/03/20 00:37:01;;;;;;;9.40;6.22;;;4.90;99.90;;;;;;4927821;29;20058;-56
2022/03/20 00:39:27;;;;;;;13.80;6.38;;;4.90;99.90;;;;;;4928406;29;20654;-54
2022/03/20 00:41:53;;;;;;;11.02;6.65;;;4.90;99.90;;;;;;4928208;29;20142;-57
2022/03/20 00:44:18;;;;;;;10.95;6.35;;;4.80;99.90;;;;;;4926360;29;20093;-55
2022/03/20 00:46:44;;;;;;;11.98;6.25;;;4.80;99.90;;;;;;4924689;29;20097;-57
2022/03/20 00:49:10;;;;;;;9.25;6.47;;;4.80;99.90;;;;;;4924992;29;20105;-56
2022/03/20 00:51:36;;;;;;;12.20;6.70;;;4.80;99.90;;;;;;4927456;29;20062;-55
2022/03/20 00:54:02;;;;;;;10.25;6.47;;;4.70;99.90;;;;;;4927414;28;20494;-57
2022/03/20 00:56:28;;;;;;;14.32;6.93;;;4.70;99.90;;;;;;4928478;28;20047;-57
2022/03/20 00:58:54;;;;;;;9.98;6.35;;;4.70;99.90;;;;;;4930906;29;20082;-57
2022/03/20 01:01:20;;;;;;;10.15;6.97;;;4.70;99.90;;;;;;4929846;29;20054;-57
2022/03/20 01:03:46;;;;;;;12.30;6.47;;;4.70;99.90;;;;;;4928029;28;20074;-57
2022/03/20 01:06:12;;;;;;;14.43;6.68;;;4.70;99.90;;;;;;4929722;28;20095;-56
2022/03/20 01:08:38;;;;;;;14.10;6.82;;;4.70;99.90;;;;;;4933305;28;20043;-56
2022/03/20 01:11:06;;;;;;;10.40;6.45;;;4.60;99.90;;;;;;4928182;28;20060;-55
2022/03/20 01:13:32;;;;;;;15.43;6.72;;;4.60;99.90;;;;;;4927880;29;20811;-55
2022/03/20 01:15:58;;;;;;;15.63;7.20;;;4.60;99.90;;;;;;4925129;29;20051;-58
2022/03/20 01:18:24;;;;;;;10.60;7.00;;;4.60;99.90;;;;;;4925188;28;20146;-56
2022/03/20 01:20:54;;;;;;;12.68;6.75;;;4.50;99.90;;;;;;4927111;29;20072;-57
2022/03/20 01:23:23;;;;;;;15.38;7.45;;;4.50;99.90;;;;;;4929602;29;20219;-55
2022/03/20 01:25:50;;;;;;;13.88;7.15;;;4.50;99.90;;;;;;4926759;28;20490;-57
2022/03/20 01:28:17;;;;;;;12.98;6.95;;;4.40;99.90;;;;;;4927592;29;20058;-55
2022/03/20 01:30:44;;;;;;;12.90;7.55;;;4.50;99.90;;;;;;4927881;29;20062;-56
2022/03/20 01:33:11;;;;;;;13.63;7.00;;;4.40;99.90;;;;;;4926078;28;20058;-57
2022/03/20 01:35:36;;;;;;;11.35;7.07;;;4.40;99.90;;;;;;4926515;28;20098;-57
2022/03/20 01:38:04;;;;;;;13.80;7.68;;;4.40;99.90;;;;;;4929063;29;20106;-57
2022/03/20 01:40:31;;;;;;;13.35;7.47;;;4.30;99.90;;;;;;4927460;28;20083;-54
2022/03/20 01:42:57;;;;;;;14.15;7.72;;;4.30;99.90;;;;;;4927359;28;20549;-55
2022/03/20 01:45:24;;;;;;;16.02;7.65;;;4.30;99.90;;;;;;4925751;28;20123;-56
2022/03/20 01:47:52;;;;;;;13.65;7.60;;;4.30;99.90;;;;;;4930380;29;20491;-56
2022/03/20 01:50:21;;;;;;;12.57;7.30;;;4.30;99.90;;;;;;4922614;29;20046;-55
2022/03/20 01:52:48;;;;;;;15.30;8.18;;;4.40;99.90;;;;;;4930238;29;20776;-57
2022/03/20 01:55:15;;;;;;;15.80;8.55;;;4.20;99.90;;;;;;4928540;29;20089;-57
2022/03/20 01:57:44;;;;;;;15.63;7.90;;;4.20;99.90;;;;;;4926928;29;20542;-55
2022/03/20 02:00:12;;;;;;;12.00;7.60;;;4.20;99.90;;;;;;4925971;29;20165;-56
2022/03/20 02:02:39;;;;;;;15.65;8.15;;;4.20;99.90;;;;;;4927739;28;20159;-54
2022/03/20 02:05:09;;;;;;;14.23;7.95;;;4.20;99.90;;;;;;4918694;28;20050;-56
2022/03/20 02:07:37;;;;;;;12.63;7.97;;;4.20;99.90;;;;;;4928645;29;20405;-57
2022/03/20 02:10:05;;;;;;;16.23;8.43;;;4.10;99.90;;;;;;4928091;28;20151;-53
2022/03/20 02:12:31;;;;;;;15.45;8.13;;;4.10;99.90;;;;;;4920316;28;20494;-56
2022/03/20 02:14:58;;;;;;;14.20;8.32;;;4.10;99.90;;;;;;4923933;29;20086;-55
2022/03/20 02:17:29;;;;;;;13.43;8.55;;;4.10;99.90;;;;;;4927665;29;20998;-54
2022/03/20 02:20:02;;;;;;;15.90;9.35;;;4.10;99.90;;;;;;4925305;28;20146;-56
2022/03/20 02:22:28;;;;;;;14.32;8.63;;;4.10;99.90;;;;;;4931179;28;20043;-56
2022/03/20 02:24:54;;;;;;;15.27;8.93;;;4.00;99.90;;;;;;4929691;28;20150;-55
2022/03/20 02:27:25;;;;;;;13.90;8.18;;;4.00;99.90;;;;;;4932777;29;20062;-57
2022/03/20 02:29:56;;;;;;;15.00;8.90;;;3.90;99.90;;;;;;4932614;29;20152;-57
2022/03/20 02:32:27;;;;;;;15.02;9.13;;;3.90;99.90;;;;;;4929224;29;20066;-57
2022/03/20 02:34:59;;;;;;;14.70;9.43;;;3.90;99.90;;;;;;4928009;28;20060;-56
2022/03/20 02:37:28;;;;;;;17.13;10.07;;;3.90;99.90;;;;;;4929947;29;20089;-57
2022/03/20 02:40:03;;;;;;;16.00;9.90;;;3.80;99.90;;;;;;4928833;29;20055;-55
2022/03/20 02:42:29;;;;;;;18.23;10.02;;;3.80;99.90;;;;;;4927689;28;20113;-56
2022/03/20 02:45:03;;;;;;;18.67;10.27;;;3.80;99.90;;;;;;4925895;29;20043;-57
2022/03/20 02:47:39;;;;;;;16.73;9.93;;;3.80;99.90;;;;;;4930369;29;20051;-55
2022/03/20 02:50:16;;;;;;;21.10;10.93;;;3.80;99.90;;;;;;4927608;29;20486;-56
2022/03/20 02:52:46;;;;;;;18.25;11.05;;;3.70;99.90;;;;;;4927205;29;20058;-55
2022/03/20 02:55:17;;;;;;;19.05;10.45;;;3.70;99.90;;;;;;4927988;29;20046;-57
2022/03/20 02:57:47;;;;;;;17.70;10.38;;;3.70;99.90;;;;;;4930347;29;20074;-57
2022/03/20 03:00:17;;;;;;;21.60;10.93;;;3.70;99.90;;;;;;4932220;29;20051;-54
2022/03/20 03:02:43;;;;;;;20.45;11.45;;;3.70;99.90;;;;;;4929120;28;20055;-56
2022/03/20 03:05:15;;;;;;;21.75;11.25;;;3.70;99.90;;;;;;4927036;28;20183;-55
2022/03/20 03:13:14;;;;;;;22.02;11.80;;;3.60;99.90;;;;;;4930935;29;20166;-57
2022/03/20 03:15:41;;;;;;;18.02;11.90;;;3.60;99.90;;;;;;4932451;29;20449;-57
2022/03/20 03:18:07;;;;;;;19.83;12.70;;;3.60;99.90;;;;;;4916574;29;20502;-56
2022/03/20 03:20:33;;;;;;;22.88;12.52;;;3.60;99.90;;;;;;4928011;29;20544;-56
2022/03/20 03:22:59;;;;;;;22.02;11.52;;;3.50;99.90;;;;;;4931759;29;20051;-57
2022/03/20 03:25:25;;;;;;;18.70;11.75;;;3.60;99.90;;;;;;4930255;28;20490;-56
2022/03/20 03:27:52;;;;;;;20.60;12.25;;;3.50;99.90;;;;;;4940533;29;20043;-56
2022/03/20 03:30:18;;;;;;;21.77;13.25;;;3.60;99.90;;;;;;4928229;28;20074;-57
2022/03/20 03:32:44;;;;;;;22.10;11.80;;;3.50;99.90;;;;;;4933734;28;20047;-57
2022/03/20 03:37:56;;;;;;;19.10;12.63;;;3.50;99.90;;;;;;4934722;29;21318;-55
2022/03/20 03:40:23;;;;;;;24.67;12.65;;;3.50;99.90;;;;;;4925766;29;20050;-56
2022/03/20 03:42:49;;;;;;;20.70;12.60;;;3.50;99.90;;;;;;4931168;28;20475;-57
2022/03/20 03:45:15;;;;;;;23.27;13.25;;;3.50;99.90;;;;;;4927617;29;20497;-57
2022/03/20 03:47:41;;;;;;;23.98;13.60;;;3.50;99.90;;;;;;4927617;29;20134;-57
2022/03/20 03:50:08;;;;;;;21.95;12.73;;;3.50;99.90;;;;;;4926163;28;21767;-57
2022/03/20 03:52:34;;;;;;;21.23;12.85;;;3.50;99.90;;;;;;4926322;29;20486;-56
2022/03/20 03:55:00;;;;;;;22.00;12.52;;;3.50;99.90;;;;;;4928404;28;20175;-55
2022/03/20 03:57:26;;;;;;;22.60;13.18;;;3.40;99.90;;;;;;4926154;28;20513;-56
2022/03/20 03:59:52;;;;;;;25.13;13.88;;;3.40;99.90;;;;;;4926191;29;20051;-57
2022/03/20 04:02:18;;;;;;;19.95;12.75;;;3.40;99.90;;;;;;4925405;28;20063;-57
2022/03/20 04:04:46;;;;;;;20.35;13.07;;;3.40;99.90;;;;;;4926726;28;20065;-57
2022/03/20 04:07:13;;;;;;;22.88;13.60;;;3.40;99.90;;;;;;4929656;29;20045;-54
2022/03/20 04:09:38;;;;;;;20.52;12.80;;;3.30;99.90;;;;;;4930513;29;20042;-57
2022/03/20 04:12:04;;;;;;;26.98;13.73;;;3.40;99.90;;;;;;4929138;28;20055;-56
2022/03/20 04:14:32;;;;;;;20.75;14.10;;;3.30;99.90;;;;;;4926921;29;20130;-56
2022/03/20 04:16:58;;;;;;;22.05;13.55;;;3.30;99.90;;;;;;4925756;28;20101;-56
2022/03/20 04:19:24;;;;;;;22.35;13.50;;;3.30;99.90;;;;;;4930676;29;20059;-51
2022/03/20 04:21:49;;;;;;;23.65;13.90;;;3.30;99.90;;;;;;4928348;28;20084;-54
2022/03/20 04:24:15;;;;;;;21.45;13.63;;;3.20;99.90;;;;;;4925561;28;20050;-54
2022/03/20 04:26:42;;;;;;;22.83;13.77;;;3.20;99.90;;;;;;4928805;29;20035;-55
2022/03/20 04:29:08;;;;;;;24.58;14.00;;;3.20;99.90;;;;;;4929566;29;20515;-56
2022/03/20 04:31:34;;;;;;;20.80;13.55;;;3.10;99.90;;;;;;4927024;29;20066;-56
2022/03/20 04:34:00;;;;;;;24.58;14.70;;;3.10;99.90;;;;;;4927995;28;20078;-56
2022/03/20 04:36:30;;;;;;;21.98;14.23;;;3.10;99.90;;;;;;4927468;28;20054;-56
2022/03/20 04:38:59;;;;;;;21.63;13.98;;;3.00;99.90;;;;;;4925694;28;20044;-57
2022/03/20 04:41:25;;;;;;;22.33;14.05;;;3.00;99.90;;;;;;4927759;29;20044;-55
2022/03/20 04:43:52;;;;;;;23.25;13.45;;;3.00;99.90;;;;;;4924023;29;20086;-55
2022/03/20 04:46:19;;;;;;;21.50;13.95;;;3.00;99.90;;;;;;4927341;29;20055;-57
2022/03/20 04:59:45;;;;;;;24.63;15.00;;;2.90;99.90;;;;;;4923476;29;20066;-57
2022/03/20 05:02:11;;;;;;;22.05;14.73;;;2.80;99.90;;;;;;4932839;29;20051;-56
2022/03/20 05:04:37;;;;;;;21.80;14.43;;;2.90;99.90;;;;;;4926555;28;20059;-53
2022/03/20 05:07:04;;;;;;;24.35;15.02;;;2.80;99.90;;;;;;4928803;29;20047;-57
2022/03/20 05:15:04;;;;;;;25.13;14.57;;;2.80;99.90;;;;;;4925545;28;20066;-55
2022/03/20 05:17:30;;;;;;;27.05;15.45;;;2.80;99.90;;;;;;4926358;29;20052;-57
2022/03/20 05:19:56;;;;;;;24.92;15.70;;;2.70;99.90;;;;;;4924341;28;20082;-57
2022/03/20 05:22:22;;;;;;;24.85;15.38;;;2.70;99.90;;;;;;4925260;29;20053;-56
2022/03/20 05:24:47;;;;;;;27.25;15.85;;;2.70;99.90;;;;;;4926426;28;20047;-54
2022/03/20 05:27:13;;;;;;;26.80;15.85;;;2.70;99.90;;;;;;4943498;28;20079;-55
2022/03/20 05:29:40;;;;;;;27.85;16.17;;;2.60;99.90;;;;;;4932153;28;20043;-54
2022/03/20 05:32:07;;;;;;;22.90;15.38;;;2.70;99.90;;;;;;4931947;28;20039;-55
2022/03/20 05:34:35;;;;;;;26.35;15.93;;;2.60;99.90;;;;;;4929462;28;20061;-55
2022/03/20 05:37:01;;;;;;;24.63;16.08;;;2.70;99.90;;;;;;4935559;29;20056;-55
2022/03/20 05:39:28;;;;;;;28.17;16.15;;;2.60;99.90;;;;;;4932530;28;20111;-56
2022/03/20 05:41:54;;;;;;;26.77;16.85;;;2.60;99.90;;;;;;4932051;28;20113;-54
2022/03/20 05:44:22;;;;;;;25.90;16.33;;;2.60;99.90;;;;;;4924718;28;20059;-56
2022/03/20 05:46:49;;;;;;;26.83;15.95;;;2.60;99.90;;;;;;4925183;29;20403;-55
2022/03/20 05:49:16;;;;;;;24.30;16.80;;;2.60;99.90;;;;;;4924456;29;20110;-52
2022/03/20 05:51:43;;;;;;;26.30;16.52;;;2.60;99.90;;;;;;4927161;29;20117;-55
2022/03/20 05:54:09;;;;;;;24.75;16.95;;;2.60;99.90;;;;;;4925454;28;20873;-55
2022/03/20 05:59:20;;;;;;;27.77;16.58;;;2.60;99.90;;;;;;4929481;29;20039;-55
2022/03/20 06:01:46;;;;;;;26.70;16.98;;;2.60;99.90;;;;;;4929734;29;20506;-54
2022/03/20 06:04:13;;;;;;;26.42;17.15;;;2.60;99.90;;;;;;4932559;28;20051;-56
2022/03/20 06:06:42;;;;;;;26.98;16.77;;;2.60;99.90;;;;;;4931177;29;20138;-55
2022/03/20 06:09:08;;;;;;;28.15;17.98;;;2.60;99.90;;;;;;4930855;29;20039;-55
2022/03/20 06:11:34;;;;;;;25.90;17.27;;;2.60;99.90;;;;;;4929885;28;20062;-57
2022/03/20 06:14:01;;;;;;;24.95;16.77;;;2.60;99.90;;;;;;4926061;29;20051;-55
2022/03/20 06:16:28;;;;;;;28.65;17.05;;;2.60;99.90;;;;;;4927992;29;20098;-56
2022/03/20 06:18:55;;;;;;;28.98;17.35;;;2.60;99.90;;;;;;4929443;29;20122;-56
2022/03/20 06:21:22;;;;;;;27.13;17.63;;;2.60;99.90;;;;;;4929951;29;20053;-55
2022/03/20 06:23:49;;;;;;;27.73;16.80;;;2.60;99.90;;;;;;4931524;29;20043;-56
2022/03/20 06:26:16;;;;;;;26.55;17.63;;;2.70;99.90;;;;;;4929561;29;20091;-54
2022/03/20 06:28:43;;;;;;;27.60;17.05;;;2.60;99.90;;;;;;4929648;28;20058;-57
2022/03/20 06:31:12;;;;;;;25.77;16.42;;;2.60;99.90;;;;;;4932524;28;20461;-56
2022/03/20 06:33:39;;;;;;;25.73;17.65;;;2.70;99.90;;;;;;4935409;28;20163;-55
2022/03/20 06:36:05;;;;;;;27.15;17.65;;;2.70;99.90;;;;;;4936426;29;20050;-56
2022/03/20 06:38:34;;;;;;;31.15;18.65;;;2.70;99.90;;;;;;4935072;29;20051;-55
2022/03/20 06:41:00;;;;;;;27.65;17.13;;;2.70;99.90;;;;;;4934380;28;20044;-55
2022/03/20 06:43:27;;;;;;;26.65;17.42;;;2.80;99.90;;;;;;4937182;29;20047;-56
2022/03/20 06:45:54;;;;;;;31.35;17.73;;;2.70;99.90;;;;;;4935263;28;20848;-56
2022/03/20 06:48:20;;;;;;;27.88;18.05;;;2.70;99.90;;;;;;4942259;29;20051;-55
2022/03/20 06:50:46;;;;;;;28.10;17.90;;;2.80;99.90;;;;;;4932752;29;20039;-55
2022/03/20 06:53:12;;;;;;;27.40;17.23;;;2.80;99.90;;;;;;4934929;28;20043;-56
2022/03/20 06:55:39;;;;;;;30.75;17.27;;;2.80;99.90;;;;;;4935119;29;20039;-56
2022/03/20 06:58:05;;;;;;;29.08;17.67;;;2.80;99.90;;;;;;4934999;29;20047;-54
2022/03/20 07:00:31;;;;;;;28.38;17.50;;;2.90;99.90;;;;;;4934934;29;20111;-57
2022/03/20 07:03:07;;;;;;;27.75;18.27;;;2.80;99.90;;;;;;4934205;28;20055;-56
2022/03/20 07:05:33;;;;;;;27.13;16.70;;;2.90;99.90;;;;;;4924613;28;20102;-56
2022/03/20 07:08:00;;;;;;;29.45;17.38;;;2.90;99.90;;;;;;4935064;29;20035;-56
2022/03/20 07:10:27;;;;;;;27.38;16.77;;;2.90;99.90;;;;;;4937814;29;20081;-56
2022/03/20 07:13:48;;;;;;;28.92;17.67;;;3.00;99.90;;;;;;4938911;28;20484;-52
2022/03/20 07:15:46;;;;;;;30.48;18.35;;;3.00;99.90;;;;;;4935619;28;20047;-53
2022/03/20 07:18:14;;;;;;;28.77;17.58;;;3.00;99.90;;;;;;4932486;29;20047;-56
2022/03/20 07:20:43;;;;;;;29.70;17.42;;;3.00;99.90;;;;;;4935100;29;20137;-56
2022/03/20 07:23:11;;;;;;;27.33;17.42;;;3.10;99.90;;;;;;4933803;29;20054;-56
2022/03/20 07:31:20;;;;;;;30.88;18.55;;;3.20;99.90;;;;;;4933207;28;20055;-53
2022/03/20 07:33:48;;;;;;;31.77;18.92;;;3.20;99.90;;;;;;4933466;28;20126;-57
2022/03/20 07:36:14;;;;;;;29.45;17.85;;;3.30;99.90;;;;;;4932981;28;20502;-55
2022/03/20 07:38:40;;;;;;;30.33;18.42;;;3.30;99.90;;;;;;4935737;28;20070;-56
2022/03/20 07:41:06;;;;;;;27.65;17.55;;;3.40;99.90;;;;;;4932696;28;20048;-55
2022/03/20 07:43:32;;;;;;;25.98;17.30;;;3.40;99.90;;;;;;4936875;28;20045;-55
2022/03/20 07:45:58;;;;;;;27.15;17.92;;;3.50;99.90;;;;;;4933380;29;20611;-56
2022/03/20 07:48:24;;;;;;;26.98;17.42;;;3.50;99.90;;;;;;4933856;29;20043;-55
2022/03/20 07:50:50;;;;;;;32.40;17.92;;;3.50;99.90;;;;;;4935740;28;20055;-56
2022/03/20 07:53:17;;;;;;;25.10;17.27;;;3.60;99.90;;;;;;4935223;28;20644;-56
2022/03/20 07:55:44;;;;;;;29.35;17.77;;;3.70;99.90;;;;;;4943696;28;20130;-57
2022/03/20 07:58:10;;;;;;;30.13;18.02;;;3.80;99.90;;;;;;4934397;29;20047;-57
2022/03/20 08:00:39;;;;;;;27.95;17.90;;;3.80;99.80;;;;;;4934248;29;20047;-54
2022/03/20 08:03:05;;;;;;;30.88;18.55;;;3.90;99.60;;;;;;4933743;28;20043;-54
2022/03/20 08:05:31;;;;;;;27.52;17.52;;;4.00;99.10;;;;;;4936292;28;20050;-57
2022/03/20 08:07:58;;;;;;;29.42;17.73;;;4.00;98.70;;;;;;4934158;29;20059;-57
2022/03/20 08:10:24;;;;;;;29.42;18.02;;;4.00;98.40;;;;;;4933167;28;20054;-55
2022/03/20 08:12:53;;;;;;;27.92;17.67;;;4.10;98.20;;;;;;4931324;29;20842;-57
2022/03/20 08:15:19;;;;;;;26.52;17.17;;;4.20;97.80;;;;;;4933546;28;20109;-57
2022/03/20 08:17:46;;;;;;;27.48;17.13;;;4.30;97.40;;;;;;4931548;28;20047;-57
2022/03/20 08:20:14;;;;;;;28.73;18.00;;;4.40;97.10;;;;;;4933165;28;20071;-56
2022/03/20 08:22:40;;;;;;;27.85;18.45;;;4.50;96.90;;;;;;4939290;28;20513;-55
2022/03/20 08:25:06;;;;;;;26.95;16.58;;;4.60;96.70;;;;;;4935067;28;20766;-57
2022/03/20 08:27:55;;;;;;;31.10;17.35;;;4.70;96.50;;;;;;4937383;29;20043;-56
2022/03/20 08:30:22;;;;;;;32.15;18.33;;;4.80;96.20;;;;;;4933848;28;20051;-56
2022/03/20 08:32:48;;;;;;;28.88;18.65;;;4.90;95.90;;;;;;4932543;28;20145;-56
2022/03/20 08:35:19;;;;;;;28.60;17.73;;;5.00;95.30;;;;;;4935433;28;20083;-57
2022/03/20 08:37:46;;;;;;;26.15;17.70;;;5.10;94.40;;;;;;4937681;28;20043;-56
2022/03/20 08:40:15;;;;;;;25.55;16.88;;;5.10;94.20;;;;;;4931397;28;20143;-56
2022/03/20 08:42:45;;;;;;;29.80;18.85;;;5.20;93.30;;;;;;4936838;29;20413;-55
2022/03/20 08:45:12;;;;;;;28.55;17.50;;;5.30;92.80;;;;;;4934581;28;20047;-56
2022/03/20 08:47:39;;;;;;;29.83;18.75;;;5.30;92.90;;;;;;4934796;28;20046;-58
2022/03/20 08:50:06;;;;;;;29.88;18.02;;;5.50;92.40;;;;;;4938577;29;20098;-55
2022/03/20 08:52:32;;;;;;;30.60;18.70;;;5.50;91.60;;;;;;4934068;28;20157;-57
2022/03/20 08:54:58;;;;;;;29.55;19.48;;;5.60;91.20;;;;;;4946013;28;20097;-56
2022/03/20 08:57:28;;;;;;;32.67;18.48;;;5.60;90.70;;;;;;4930783;28;20173;-55
2022/03/20 08:59:56;;;;;;;31.00;18.83;;;5.70;90.40;;;;;;4927538;29;20557;-57
2022/03/20 09:02:22;;;;;;;28.95;18.50;;;5.80;90.30;;;;;;4929033;28;20054;-57
2022/03/20 09:04:48;;;;;;;32.72;19.38;;;5.90;90.40;;;;;;4923496;28;20070;-56
2022/03/20 09:07:13;;;;;;;29.27;18.92;;;5.90;89.60;;;;;;4921081;29;20039;-56
2022/03/20 09:09:39;;;;;;;33.67;19.20;;;6.10;89.00;;;;;;4923834;28;20043;-57
2022/03/20 09:12:08;;;;;;;30.58;19.73;;;6.10;87.80;;;;;;4928066;29;20061;-58
2022/03/20 09:14:34;;;;;;;31.45;19.25;;;6.20;87.30;;;;;;4926209;28;20134;-55
2022/03/20 09:19:45;;;;;;;29.15;20.05;;;6.40;86.20;;;;;;4931274;29;20115;-57
2022/03/20 09:22:12;;;;;;;28.48;19.13;;;6.50;84.90;;;;;;4928808;28;20142;-55
2022/03/20 09:24:38;;;;;;;33.33;20.50;;;6.60;83.20;;;;;;4929880;28;20051;-56
2022/03/20 09:27:05;;;;;;;31.05;20.13;;;6.70;82.40;;;;;;4927916;29;20049;-57
2022/03/20 09:29:31;;;;;;;33.13;20.00;;;6.80;81.90;;;;;;4927967;28;20089;-56
2022/03/20 09:31:57;;;;;;;31.08;19.90;;;6.80;81.90;;;;;;4927065;29;20051;-56
2022/03/20 09:34:23;;;;;;;31.75;19.85;;;6.90;81.40;;;;;;4942096;28;20059;-56
2022/03/20 09:36:49;;;;;;;30.55;19.63;;;7.00;80.60;;;;;;4926472;29;20154;-57
2022/03/20 09:39:15;;;;;;;33.33;20.02;;;7.10;79.70;;;;;;4925400;28;20043;-56
2022/03/20 09:41:45;;;;;;;30.48;20.00;;;7.20;79.40;;;;;;4925321;29;20055;-56
2022/03/20 09:44:11;;;;;;;33.25;20.58;;;7.30;78.40;;;;;;4925660;29;20048;-57
2022/03/20 09:46:39;;;;;;;36.60;20.75;;;7.30;78.30;;;;;;4925284;29;20051;-57
2022/03/20 09:49:08;;;;;;;31.70;20.70;;;7.40;76.90;;;;;;4926586;28;20051;-57
2022/03/20 09:51:34;;;;;;;32.10;20.40;;;7.50;76.70;;;;;;4926840;28;20056;-57
2022/03/20 09:54:00;;;;;;;33.42;20.77;;;7.50;76.20;;;;;;4928814;29;20051;-56
2022/03/20 09:56:27;;;;;;;30.75;20.88;;;7.60;75.80;;;;;;4928498;28;20062;-57
2022/03/20 09:58:53;;;;;;;29.92;20.75;;;7.70;75.50;;;;;;4927717;28;20098;-56
2022/03/20 10:01:19;;;;;;;34.75;21.23;;;7.80;75.50;;;;;;4934794;29;20050;-56
2022/03/20 10:03:46;;;;;;;30.85;20.13;;;7.90;75.00;;;;;;4927877;28;20074;-58
2022/03/20 10:06:16;;;;;;;31.75;20.67;;;8.00;74.30;;;;;;4933527;29;20075;-55
2022/03/20 10:08:58;;;;;;;31.45;20.33;;;8.10;73.60;;;;;;4928841;29;20047;-56
2022/03/20 10:11:26;;;;;;;34.28;21.35;;;8.30;72.70;;;;;;4928059;28;20225;-57
2022/03/20 10:14:10;;;;;;;31.55;21.25;;;8.40;71.30;;;;;;4926029;28;20062;-57
2022/03/20 10:16:38;;;;;;;35.47;21.35;;;8.50;71.40;;;;;;4926503;29;20134;-58
2022/03/20 10:19:22;;;;;;;32.65;20.85;;;8.60;70.90;;;;;;4929314;28;20997;-56
2022/03/20 10:21:52;;;;;;;30.92;20.52;;;8.70;69.50;;;;;;4930788;28;20043;-57
2022/03/20 10:24:20;;;;;;;31.75;21.33;;;8.80;68.90;;;;;;4925367;28;20043;-56
2022/03/20 10:26:59;;;;;;;33.42;20.40;;;8.90;69.10;;;;;;4928636;28;20052;-56
2022/03/20 10:29:26;;;;;;;30.95;20.95;;;9.00;67.90;;;;;;4924552;28;20091;-57
2022/03/20 10:31:54;;;;;;;32.15;21.52;;;9.10;68.10;;;;;;4926898;28;20129;-56
2022/03/20 10:34:21;;;;;;;32.50;21.30;;;9.20;67.50;;;;;;4927577;28;20058;-56
2022/03/20 10:36:50;;;;;;;32.13;21.48;;;9.30;66.50;;;;;;4930316;29;20047;-57
2022/03/20 10:39:19;;;;;;;34.55;21.67;;;9.40;66.10;;;;;;4931832;28;20047;-57
2022/03/20 10:41:47;;;;;;;33.95;21.60;;;9.50;66.60;;;;;;4930095;28;20464;-58
2022/03/20 10:44:16;;;;;;;32.60;21.30;;;9.60;66.50;;;;;;4930315;29;20051;-56
2022/03/20 10:46:43;;;;;;;32.22;20.63;;;9.80;66.40;;;;;;4931790;29;20214;-57
2022/03/20 10:49:20;;;;;;;40.30;22.65;;;9.90;65.80;;;;;;4931725;28;20043;-58
2022/03/20 10:52:04;;;;;;;31.55;21.27;;;10.00;64.40;;;;;;4949318;28;20186;-55
2022/03/20 10:54:53;;;;;;;33.42;21.58;;;10.10;64.10;;;;;;4937285;28;20102;-57
2022/03/20 10:57:20;;;;;;;35.80;21.95;;;10.20;63.90;;;;;;4935666;28;20501;-58
2022/03/20 11:00:07;;;;;;;40.63;21.50;;;10.30;63.20;;;;;;4935987;29;20044;-57
2022/03/20 11:02:36;;;;;;;31.25;21.40;;;10.40;63.40;;;;;;4927433;28;20454;-56
2022/03/20 11:05:02;;;;;;;30.88;20.83;;;10.50;62.60;;;;;;4929919;28;20047;-56
2022/03/20 11:07:28;;;;;;;30.45;21.40;;;10.60;61.60;;;;;;4932809;28;20132;-57
2022/03/20 11:09:55;;;;;;;35.05;22.15;;;10.60;61.00;;;;;;4931030;28;20031;-58
2022/03/20 11:12:29;;;;;;;35.47;22.45;;;10.60;60.90;;;;;;4934969;28;20047;-58
2022/03/20 11:14:58;;;;;;;36.20;21.80;;;10.70;61.50;;;;;;4927190;29;20050;-58
2022/03/20 11:17:30;;;;;;;38.40;23.05;;;10.70;60.40;;;;;;4929421;28;20055;-57
2022/03/20 11:19:57;;;;;;;31.40;21.60;;;10.80;60.00;;;;;;4927222;28;20510;-57
2022/03/20 11:22:24;;;;;;;32.88;21.95;;;10.80;59.00;;;;;;4935106;28;20051;-57
2022/03/20 11:24:52;;;;;;;33.30;22.58;;;10.90;59.20;;;;;;4931650;28;20049;-58
2022/03/20 11:27:23;;;;;;;33.13;21.70;;;10.90;59.20;;;;;;4929328;28;20048;-56
2022/03/20 11:29:54;;;;;;;32.28;21.88;;;11.00;59.30;;;;;;4930605;28;20078;-57
2022/03/20 11:32:21;;;;;;;31.95;22.55;;;11.10;58.40;;;;;;4930201;28;20075;-56
2022/03/20 11:34:48;;;;;;;33.25;21.58;;;11.30;58.70;;;;;;4932700;29;20047;-57
2022/03/20 11:37:16;;;;;;;32.55;21.55;;;11.40;58.50;;;;;;4930836;28;21265;-54
2022/03/20 11:40:12;;;;;;;30.08;21.85;;;11.40;57.40;;;;;;4931546;28;20098;-56
2022/03/20 11:42:39;;;;;;;39.42;22.90;;;11.40;57.90;;;;;;4927056;28;20051;-56
2022/03/20 11:45:06;;;;;;;36.60;22.35;;;11.50;57.80;;;;;;4930042;28;20043;-58
2022/03/20 11:47:33;;;;;;;32.35;22.60;;;11.50;57.20;;;;;;4932548;29;20169;-58
2022/03/20 11:50:12;;;;;;;29.38;21.27;;;11.70;57.50;;;;;;4930316;29;20035;-58
2022/03/20 11:52:45;;;;;;;34.70;22.60;;;11.80;57.10;;;;;;4931319;28;20051;-57
2022/03/20 11:55:52;;;;;;;38.85;21.80;;;11.80;57.20;;;;;;4930650;28;20051;-54
2022/03/20 11:58:22;;;;;;;36.17;22.25;;;12.00;56.70;;;;;;4911761;28;20135;-56
2022/03/20 12:01:04;;;;;;;36.83;21.83;;;12.10;56.40;;;;;;4930646;29;20130;-57
2022/03/20 12:03:49;;;;;;;31.50;22.23;;;12.30;55.80;;;;;;4918566;28;20052;-57
2022/03/20 12:06:44;;;;;;;31.90;21.92;;;12.30;55.10;;;;;;4929116;28;20047;-57
2022/03/20 12:09:22;;;;;;;30.58;21.25;;;12.40;55.10;;;;;;4929759;29;20075;-58
2022/03/20 12:12:09;;;;;;;35.25;22.08;;;12.50;55.10;;;;;;4930373;28;20046;-58
2022/03/20 12:14:46;;;;;;;33.45;22.27;;;12.60;54.40;;;;;;4928046;28;20059;-58
2022/03/20 12:17:13;;;;;;;34.42;21.88;;;12.70;54.40;;;;;;4928579;28;20055;-58
2022/03/20 12:19:53;;;;;;;44.45;22.08;;;12.80;54.70;;;;;;4920872;28;20055;-57
2022/03/20 12:22:19;;;;;;;36.00;21.65;;;13.00;54.50;;;;;;4926767;29;20063;-58
2022/03/20 12:25:00;;;;;;;32.17;21.95;;;13.10;54.50;;;;;;4926667;29;20043;-57
2022/03/20 12:27:25;;;;;;;32.58;21.50;;;13.20;54.00;;;;;;4931316;28;20051;-59
2022/03/20 12:29:53;;;;;;;30.58;22.02;;;13.20;54.00;;;;;;4926538;29;20043;-57
2022/03/20 12:32:20;;;;;;;34.20;21.80;;;13.10;52.90;;;;;;4927746;28;20087;-60
2022/03/20 12:35:06;;;;;;;36.97;21.88;;;13.10;53.20;;;;;;4927485;29;20043;-58
2022/03/20 12:37:33;;;;;;;34.05;22.45;;;13.30;53.20;;;;;;4925968;28;20059;-57
2022/03/20 12:40:26;;;;;;;31.88;21.95;;;13.40;52.50;;;;;;4926533;28;20039;-59
2022/03/20 12:43:13;;;;;;;31.30;20.70;;;13.50;51.50;;;;;;4928277;29;20244;-58
2022/03/20 12:45:42;;;;;;;39.35;20.77;;;13.60;52.20;;;;;;4926325;29;20044;-58
2022/03/20 12:48:16;;;;;;;34.92;22.23;;;13.70;51.50;;;;;;4928137;29;20095;-57
2022/03/20 12:50:45;;;;;;;32.67;21.77;;;13.70;51.20;;;;;;4928010;29;20390;-57
2022/03/20 12:53:16;;;;;;;36.25;22.08;;;13.80;51.90;;;;;;4928005;28;20063;-56
2022/03/20 12:56:11;;;;;;;33.38;22.92;;;13.90;50.90;;;;;;4930584;29;20111;-57
2022/03/20 12:58:37;;;;;;;30.65;21.77;;;13.90;50.90;;;;;;4928097;28;20051;-58
2022/03/20 13:01:08;;;;;;;33.67;21.45;;;14.00;50.40;;;;;;4925778;28;20118;-58
2022/03/20 13:03:34;;;;;;;36.17;21.65;;;14.00;50.50;;;;;;4926542;29;20051;-59
2022/03/20 13:06:03;;;;;;;32.38;21.85;;;14.10;51.00;;;;;;4930676;29;20493;-59
2022/03/20 13:08:37;;;;;;;29.23;20.83;;;14.10;50.30;;;;;;4928023;29;20205;-59
2022/03/20 13:11:06;;;;;;;30.60;21.17;;;14.20;49.80;;;;;;4931036;29;20102;-59
2022/03/20 13:13:35;;;;;;;30.23;21.10;;;14.20;49.90;;;;;;4942216;28;20051;-58
2022/03/20 13:16:13;;;;;;;39.47;21.02;;;14.20;49.70;;;;;;4927400;28;20059;-59
2022/03/20 13:18:39;;;;;;;32.30;21.42;;;14.20;49.50;;;;;;4928976;29;23959;-59
2022/03/20 13:21:07;;;;;;;34.00;21.75;;;14.20;49.70;;;;;;4922715;29;20073;-56